createdAt,value
2018-05-02T00:01:40.299Z,9.13
2018-05-02T00:04:07.825Z,9.13
2018-05-02T00:06:35.319Z,9.30
2018-05-02T00:09:02.823Z,8.43
2018-05-02T00:11:30.327Z,9.02
2018-05-02T00:13:57.823Z,8.70
2018-05-02T00:19:00.170Z,10.30
2018-05-02T00:21:27.687Z,8.68
2018-05-02T00:23:55.182Z,8.73
2018-05-02T00:26:22.753Z,7.95
2018-05-02T00:28:50.280Z,8.65
2018-05-02T00:31:18.107Z,7.90
2018-05-02T00:33:46.375Z,8.18
2018-05-02T00:36:14.659Z,8.15
2018-05-02T00:38:42.935Z,9.50
2018-05-02T00:41:11.207Z,6.75
2018-05-02T00:43:39.474Z,7.70
2018-05-02T00:46:06.967Z,7.22
2018-05-02T00:48:34.500Z,7.37
2018-05-02T00:51:02.004Z,5.90
2018-05-02T00:53:29.490Z,5.62
2018-05-02T00:55:57.003Z,5.85
2018-05-02T00:58:24.502Z,5.75
2018-05-02T01:00:51.995Z,4.85
2018-05-02T01:03:20.279Z,5.05
2018-05-02T01:05:48.553Z,5.03
2018-05-02T01:08:16.815Z,4.05
2018-05-02T01:10:44.321Z,6.12
2018-05-02T01:13:12.127Z,5.05
2018-05-02T01:15:39.622Z,4.78
2018-05-02T01:18:07.875Z,4.45
2018-05-02T01:20:35.414Z,5.22
2018-05-02T01:23:02.915Z,4.43
2018-05-02T01:25:30.423Z,5.20
2018-05-02T01:27:57.935Z,4.30
2018-05-02T01:30:26.223Z,3.95
2018-05-02T01:32:53.714Z,4.05
2018-05-02T01:35:21.211Z,4.47
2018-05-02T01:37:48.722Z,4.53
2018-05-02T01:40:16.223Z,5.35
2018-05-02T01:42:43.713Z,4.90
2018-05-02T01:45:11.207Z,5.15
2018-05-02T01:47:38.703Z,4.95
2018-05-02T01:50:06.265Z,4.95
2018-05-02T01:52:34.530Z,4.68
2018-05-02T01:55:02.103Z,4.78
2018-05-02T01:57:30.371Z,4.80
2018-05-02T01:59:57.865Z,5.05
2018-05-02T02:02:25.375Z,4.30
2018-05-02T02:04:52.895Z,4.60
2018-05-02T02:07:20.400Z,5.30
2018-05-02T02:09:47.897Z,4.70
2018-05-02T02:12:15.406Z,5.20
2018-05-02T02:14:42.898Z,4.53
2018-05-02T02:17:11.167Z,5.25
2018-05-02T02:19:39.534Z,4.60
2018-05-02T02:22:07.027Z,5.22
2018-05-02T02:24:34.562Z,4.95
2018-05-02T02:27:02.838Z,5.43
2018-05-02T02:29:31.192Z,4.80
2018-05-02T02:31:58.711Z,4.70
2018-05-02T02:34:26.276Z,6.35
2018-05-02T02:36:53.766Z,4.65
2018-05-02T02:39:21.328Z,4.60
2018-05-02T02:41:49.199Z,4.85
2018-05-02T02:44:16.683Z,5.55
2018-05-02T02:46:44.977Z,4.60
2018-05-02T02:49:12.550Z,4.30
2018-05-02T02:51:40.043Z,4.37
2018-05-02T02:54:07.531Z,4.55
2018-05-02T02:56:35.811Z,4.47
2018-05-02T02:59:04.082Z,4.65
2018-05-02T03:01:32.360Z,5.10
2018-05-02T03:04:00.635Z,5.00
2018-05-02T03:06:28.910Z,4.62
2018-05-02T03:08:57.178Z,5.10
2018-05-02T03:11:24.689Z,4.18
2018-05-02T03:13:52.227Z,5.43
2018-05-02T03:16:19.727Z,5.90
2018-05-02T03:18:47.223Z,5.43
2018-05-02T03:21:15.523Z,5.05
2018-05-02T03:23:43.058Z,5.20
2018-05-02T03:26:10.622Z,5.22
2018-05-02T03:28:38.895Z,5.00
2018-05-02T03:31:06.391Z,5.75
2018-05-02T03:33:33.887Z,5.80
2018-05-02T03:36:01.387Z,4.35
2018-05-02T03:38:29.647Z,4.30
2018-05-02T03:40:57.136Z,5.40
2018-05-02T03:43:24.643Z,4.32
2018-05-02T03:45:52.141Z,4.50
2018-05-02T03:48:20.391Z,4.97
2018-05-02T03:50:47.899Z,4.55
2018-05-02T03:53:15.395Z,5.10
2018-05-02T03:55:42.887Z,5.30
2018-05-02T03:58:11.216Z,4.47
2018-05-02T04:00:50.613Z,4.53
2018-05-02T04:03:30.646Z,4.43
2018-05-02T04:09:04.875Z,3.80
2018-05-02T04:11:32.367Z,4.55
2018-05-02T04:13:59.856Z,5.30
2018-05-02T04:16:27.447Z,4.62
2018-05-02T04:18:54.939Z,4.82
2018-05-02T04:21:22.439Z,4.55
2018-05-02T04:23:49.941Z,5.35
2018-05-02T04:26:18.199Z,5.53
2018-05-02T04:28:45.693Z,3.87
2018-05-02T04:31:13.230Z,4.85
2018-05-02T04:33:41.487Z,4.97
2018-05-02T04:36:08.982Z,5.30
2018-05-02T04:38:37.246Z,4.50
2018-05-02T04:41:05.578Z,4.78
2018-05-02T04:43:33.791Z,4.35
2018-05-02T04:46:02.173Z,4.40
2018-05-02T04:48:30.471Z,5.05
2018-05-02T04:50:57.986Z,10.40
2018-05-02T04:53:25.486Z,3.90
2018-05-02T04:55:52.975Z,4.32
2018-05-02T04:58:20.484Z,4.40
2018-05-02T05:00:48.759Z,4.18
2018-05-02T05:03:17.090Z,4.45
2018-05-02T05:05:44.609Z,5.00
2018-05-02T05:08:12.895Z,4.80
2018-05-02T05:10:40.388Z,4.05
2018-05-02T05:13:07.878Z,3.83
2018-05-02T05:15:35.394Z,3.70
2018-05-02T05:18:02.906Z,4.28
2018-05-02T05:20:31.182Z,3.60
2018-05-02T05:22:59.467Z,4.22
2018-05-02T05:25:26.979Z,3.85
2018-05-02T05:27:54.474Z,3.70
2018-05-02T05:30:21.976Z,4.00
2018-05-02T05:32:49.463Z,3.78
2018-05-02T05:35:16.984Z,3.80
2018-05-02T05:37:44.616Z,3.97
2018-05-02T05:40:12.878Z,4.28
2018-05-02T05:42:40.367Z,4.25
2018-05-02T05:45:07.875Z,4.25
2018-05-02T05:47:35.378Z,4.28
2018-05-02T05:50:03.641Z,4.20
2018-05-02T05:52:31.141Z,4.90
2018-05-02T05:54:58.732Z,4.32
2018-05-02T05:57:26.222Z,4.12
2018-05-02T05:59:54.607Z,4.05
2018-05-02T06:02:22.881Z,4.80
2018-05-02T06:04:50.407Z,4.35
2018-05-02T06:07:17.915Z,4.07
2018-05-02T06:09:45.415Z,4.50
2018-05-02T06:12:12.915Z,3.75
2018-05-02T06:14:41.203Z,4.68
2018-05-02T06:17:09.487Z,4.37
2018-05-02T06:19:37.027Z,3.83
2018-05-02T06:22:05.304Z,4.00
2018-05-02T06:24:33.563Z,4.30
2018-05-02T06:27:01.057Z,4.20
2018-05-02T06:29:28.563Z,3.87
2018-05-02T06:31:56.152Z,4.57
2018-05-02T06:34:23.643Z,4.87
2018-05-02T06:36:51.154Z,3.92
2018-05-02T06:39:18.639Z,4.15
2018-05-02T06:41:46.911Z,4.40
2018-05-02T06:44:15.195Z,3.85
2018-05-02T06:46:43.485Z,4.15
2018-05-02T06:49:11.000Z,3.55
2018-05-02T06:51:38.522Z,4.18
2018-05-02T06:54:06.013Z,3.62
2018-05-02T06:56:33.507Z,3.75
2018-05-02T06:59:01.795Z,3.55
2018-05-02T07:01:29.287Z,3.67
2018-05-02T07:03:56.883Z,3.20
2018-05-02T07:06:25.318Z,3.72
2018-05-02T07:08:52.820Z,3.92
2018-05-02T07:11:20.311Z,3.30
2018-05-02T07:13:47.840Z,2.85
2018-05-02T07:16:15.339Z,3.00
2018-05-02T07:18:42.836Z,3.35
2018-05-02T07:21:10.346Z,3.70
2018-05-02T07:23:37.842Z,3.08
2018-05-02T07:26:05.343Z,2.67
2018-05-02T07:28:33.626Z,3.33
2018-05-02T07:31:01.900Z,2.87
2018-05-02T07:33:30.255Z,4.43
2018-05-02T07:35:57.784Z,3.12
2018-05-02T07:38:25.291Z,2.65
2018-05-02T07:40:53.551Z,2.92
2018-05-02T07:43:21.070Z,2.83
2018-05-02T07:45:48.571Z,2.50
2018-05-02T07:48:16.220Z,3.20
2018-05-02T07:50:43.760Z,3.30
2018-05-02T07:53:11.267Z,2.75
2018-05-02T07:55:39.633Z,2.30
2018-05-02T07:58:07.947Z,3.12
2018-05-02T08:00:35.453Z,2.80
2018-05-02T08:03:02.947Z,2.72
2018-05-02T08:05:31.260Z,2.12
2018-05-02T08:07:59.579Z,2.30
2018-05-02T08:10:27.085Z,2.80
2018-05-02T08:12:54.620Z,2.30
2018-05-02T08:15:22.890Z,2.28
2018-05-02T08:17:51.167Z,2.28
2018-05-02T08:20:19.451Z,2.13
2018-05-02T08:22:47.731Z,2.90
2018-05-02T08:25:16.011Z,2.30
2018-05-02T08:27:44.276Z,2.20
2018-05-02T08:30:12.554Z,2.50
2018-05-02T08:32:40.859Z,2.50
2018-05-02T08:35:08.375Z,2.00
2018-05-02T08:37:35.872Z,2.63
2018-05-02T08:40:03.388Z,2.00
2018-05-02T08:42:30.891Z,2.57
2018-05-02T08:44:58.385Z,2.20
2018-05-02T08:47:25.903Z,2.30
2018-05-02T08:49:53.488Z,2.30
2018-05-02T08:52:22.063Z,1.67
2018-05-02T08:54:49.595Z,1.93
2018-05-02T08:57:17.877Z,2.57
2018-05-02T08:59:45.388Z,2.37
2018-05-02T09:02:12.922Z,2.17
2018-05-02T09:04:40.419Z,2.07
2018-05-02T09:07:07.919Z,2.13
2018-05-02T09:09:35.474Z,2.00
2018-05-02T09:12:03.069Z,2.10
2018-05-02T09:14:30.571Z,2.10
2018-05-02T09:16:58.091Z,2.20
2018-05-02T09:19:25.598Z,2.13
2018-05-02T09:21:53.870Z,2.20
2018-05-02T09:24:22.180Z,2.00
2018-05-02T09:26:49.679Z,2.20
2018-05-02T09:29:17.240Z,1.90
2018-05-02T09:31:44.779Z,2.10
2018-05-02T09:34:12.282Z,2.10
2018-05-02T09:36:39.793Z,2.03
2018-05-02T09:39:07.319Z,1.80
2018-05-02T09:41:36.707Z,1.80
2018-05-02T09:44:04.330Z,1.80
2018-05-02T09:46:32.553Z,2.17
2018-05-02T09:49:00.083Z,1.80
2018-05-02T09:51:27.589Z,2.00
2018-05-02T09:53:55.164Z,1.97
2018-05-02T09:56:23.388Z,1.60
2018-05-02T09:58:50.878Z,1.90
2018-05-02T10:01:18.395Z,1.80
2018-05-02T10:03:45.894Z,2.57
2018-05-02T10:06:14.201Z,1.93
2018-05-02T10:08:41.708Z,2.43
2018-05-02T10:11:09.204Z,2.37
2018-05-02T10:13:36.698Z,1.70
2018-05-02T10:16:04.238Z,1.60
2018-05-02T10:18:33.160Z,2.20
2018-05-02T10:21:00.615Z,2.03
2018-05-02T10:23:28.132Z,2.03
2018-05-02T10:25:55.634Z,1.93
2018-05-02T10:28:23.130Z,2.00
2018-05-02T10:30:50.744Z,1.90
2018-05-02T10:33:18.269Z,1.80
2018-05-02T10:35:45.771Z,2.40
2018-05-02T10:38:13.284Z,2.10
2018-05-02T10:40:40.801Z,1.90
2018-05-02T10:43:09.115Z,2.43
2018-05-02T10:45:36.624Z,2.37
2018-05-02T10:48:04.119Z,2.10
2018-05-02T10:50:32.425Z,1.90
2018-05-02T10:52:59.915Z,1.93
2018-05-02T10:55:28.319Z,1.80
2018-05-02T10:57:56.611Z,2.07
2018-05-02T11:00:24.891Z,2.20
2018-05-02T11:02:53.151Z,2.80
2018-05-02T11:05:20.816Z,2.40
2018-05-02T11:07:49.216Z,2.00
2018-05-02T11:10:16.815Z,1.90
2018-05-02T11:12:44.455Z,2.40
2018-05-02T11:15:12.022Z,2.00
2018-05-02T11:17:39.511Z,2.00
2018-05-02T11:20:07.025Z,2.27
2018-05-02T11:22:34.519Z,2.60
2018-05-02T11:25:02.032Z,2.00
2018-05-02T11:27:29.531Z,2.33
2018-05-02T11:29:57.048Z,2.50
2018-05-02T11:32:24.542Z,2.37
2018-05-02T11:34:52.035Z,2.37
2018-05-02T11:37:19.591Z,1.80
2018-05-02T11:39:47.099Z,1.90
2018-05-02T11:42:15.435Z,1.70
2018-05-02T11:44:43.732Z,1.90
2018-05-02T11:47:11.990Z,1.63
2018-05-02T11:49:40.251Z,1.77
2018-05-02T11:52:08.555Z,1.60
2018-05-02T11:54:36.814Z,2.43
2018-05-02T11:57:04.310Z,2.07
2018-05-02T11:59:32.063Z,2.13
2018-05-02T12:02:00.331Z,1.93
2018-05-02T12:04:28.600Z,1.93
2018-05-02T12:06:56.883Z,2.07
2018-05-02T12:09:25.143Z,2.07
2018-05-02T12:11:53.708Z,2.13
2018-05-02T12:14:21.257Z,2.00
2018-05-02T12:16:48.768Z,2.10
2018-05-02T12:19:16.266Z,2.53
2018-05-02T12:21:43.819Z,2.30
2018-05-02T12:24:11.319Z,2.77
2018-05-02T12:26:39.590Z,2.60
2018-05-02T12:29:07.110Z,2.73
2018-05-02T12:31:34.605Z,2.60
2018-05-02T12:34:02.105Z,2.60
2018-05-02T12:36:29.659Z,2.70
2018-05-02T12:38:57.211Z,2.30
2018-05-02T12:41:24.773Z,2.70
2018-05-02T12:43:52.323Z,2.67
2018-05-02T12:46:20.760Z,3.00
2018-05-02T12:48:48.270Z,3.13
2018-05-02T12:51:15.831Z,2.33
2018-05-02T12:53:43.370Z,2.43
2018-05-02T12:56:11.715Z,2.60
2018-05-02T12:58:39.177Z,2.23
2018-05-02T13:01:06.671Z,2.90
2018-05-02T13:03:34.948Z,3.57
2018-05-02T13:06:03.234Z,2.90
2018-05-02T13:08:30.743Z,2.70
2018-05-02T13:10:58.250Z,2.70
2018-05-02T13:13:25.777Z,1.77
2018-05-02T13:15:53.288Z,2.20
2018-05-02T13:18:20.787Z,2.63
2018-05-02T13:20:48.356Z,1.80
2018-05-02T13:23:15.862Z,2.37
2018-05-02T13:25:43.362Z,1.70
2018-05-02T13:28:10.962Z,2.47
2018-05-02T13:30:38.617Z,1.80
2018-05-02T13:33:06.236Z,2.07
2018-05-02T13:35:33.762Z,2.20
2018-05-02T13:38:01.256Z,1.80
2018-05-02T13:40:28.797Z,1.83
2018-05-02T13:42:56.332Z,1.50
2018-05-02T13:45:24.071Z,2.30
2018-05-02T13:47:51.628Z,1.80
2018-05-02T13:50:19.147Z,2.00
2018-05-02T13:52:46.647Z,1.97
2018-05-02T13:55:14.903Z,2.07
2018-05-02T13:57:42.421Z,2.20
2018-05-02T14:00:09.915Z,1.57
2018-05-02T14:02:37.410Z,2.07
2018-05-02T14:05:04.935Z,1.70
2018-05-02T14:07:33.211Z,2.03
2018-05-02T14:10:01.351Z,1.90
2018-05-02T14:12:28.863Z,1.90
2018-05-02T14:14:56.411Z,1.83
2018-05-02T14:17:24.712Z,1.60
2018-05-02T14:19:52.231Z,1.50
2018-05-02T14:22:19.729Z,2.03
2018-05-02T14:24:48.069Z,1.53
2018-05-02T14:27:15.588Z,1.70
2018-05-02T14:29:43.312Z,2.00
2018-05-02T14:32:11.705Z,2.87
2018-05-02T14:34:39.220Z,2.30
2018-05-02T14:37:06.827Z,1.90
2018-05-02T14:39:34.359Z,2.30
2018-05-02T14:42:01.885Z,1.70
2018-05-02T14:44:29.383Z,1.90
2018-05-02T14:46:57.647Z,1.80
2018-05-02T14:49:25.160Z,1.70
2018-05-02T14:51:52.663Z,1.80
2018-05-02T14:54:20.235Z,1.60
2018-05-02T14:56:47.899Z,1.60
2018-05-02T14:59:15.411Z,1.70
2018-05-02T15:01:42.935Z,1.90
2018-05-02T15:04:10.427Z,1.83
2018-05-02T15:06:37.948Z,2.00
2018-05-02T15:09:06.397Z,1.50
2018-05-02T15:11:34.027Z,1.70
2018-05-02T15:14:01.533Z,2.00
2018-05-02T15:16:29.791Z,1.80
2018-05-02T15:18:57.297Z,2.90
2018-05-02T15:21:24.788Z,2.40
2018-05-02T15:23:52.283Z,2.10
2018-05-02T15:26:21.254Z,1.60
2018-05-02T15:28:48.769Z,1.50
2018-05-02T15:31:16.275Z,1.77
2018-05-02T15:33:43.791Z,1.83
2018-05-02T15:36:11.288Z,1.80
2018-05-02T15:38:38.780Z,1.80
2018-05-02T15:41:06.420Z,1.60
2018-05-02T15:43:34.704Z,1.83
2018-05-02T15:46:02.966Z,2.30
2018-05-02T15:48:30.458Z,1.90
2018-05-02T15:50:57.980Z,1.73
2018-05-02T15:53:25.492Z,2.10
2018-05-02T15:55:52.991Z,2.10
2018-05-02T15:58:20.622Z,2.00
2018-05-02T16:00:48.192Z,2.07
2018-05-02T16:03:15.781Z,2.10
2018-05-02T16:05:44.067Z,2.03
2018-05-02T16:08:12.362Z,1.90
2018-05-02T16:10:40.626Z,1.90
2018-05-02T16:13:08.898Z,1.80
2018-05-02T16:15:37.242Z,2.60
2018-05-02T16:18:04.857Z,2.20
2018-05-02T16:20:32.373Z,1.90
2018-05-02T16:22:59.871Z,2.20
2018-05-02T16:25:27.399Z,2.20
2018-05-02T16:27:55.028Z,2.50
2018-05-02T16:30:23.271Z,2.27
2018-05-02T16:32:50.808Z,2.23
2018-05-02T16:35:19.124Z,2.20
2018-05-02T16:37:46.624Z,2.40
2018-05-02T16:40:14.141Z,2.80
2018-05-02T16:42:41.639Z,2.20
2018-05-02T16:45:09.150Z,2.37
2018-05-02T16:47:36.679Z,2.73
2018-05-02T16:50:04.955Z,2.20
2018-05-02T16:52:33.288Z,2.10
2018-05-02T16:55:00.815Z,3.00
2018-05-02T16:57:28.320Z,2.10
2018-05-02T16:59:55.822Z,2.30
2018-05-02T17:02:24.106Z,2.23
2018-05-02T17:04:51.677Z,2.40
2018-05-02T17:07:19.176Z,2.53
2018-05-02T17:09:46.801Z,2.53
2018-05-02T17:12:14.311Z,2.70
2018-05-02T17:14:41.803Z,3.07
2018-05-02T17:17:09.339Z,2.97
2018-05-02T17:19:37.603Z,2.60
2018-05-02T17:22:05.137Z,2.73
2018-05-02T17:24:32.631Z,2.57
2018-05-02T17:27:00.899Z,3.10
2018-05-02T17:32:02.407Z,2.63
2018-05-02T17:34:30.199Z,2.40
2018-05-02T17:36:57.700Z,3.00
2018-05-02T17:39:25.980Z,3.30
2018-05-02T17:41:54.246Z,3.13
2018-05-02T17:44:21.744Z,3.63
2018-05-02T17:46:49.267Z,3.17
2018-05-02T17:49:18.443Z,2.43
2018-05-02T17:51:45.984Z,3.00
2018-05-02T17:54:13.485Z,3.00
2018-05-02T17:56:41.758Z,2.80
2018-05-02T17:59:10.055Z,3.20
2018-05-02T18:01:37.553Z,2.77
2018-05-02T18:04:05.050Z,2.90
2018-05-02T18:06:33.343Z,2.63
2018-05-02T18:09:00.839Z,2.60
2018-05-02T18:11:28.342Z,2.60
2018-05-02T18:14:02.205Z,2.60
2018-05-02T18:16:29.844Z,2.60
2018-05-02T18:18:58.900Z,3.70
2018-05-02T18:21:26.413Z,2.73
2018-05-02T18:23:54.655Z,2.80
2018-05-02T18:26:22.915Z,3.80
2018-05-02T18:28:51.194Z,4.03
2018-05-02T18:31:19.465Z,3.03
2018-05-02T18:33:47.761Z,2.77
2018-05-02T18:36:15.307Z,3.47
2018-05-02T18:38:43.571Z,2.87
2018-05-02T18:41:11.066Z,3.00
2018-05-02T18:43:38.602Z,2.93
2018-05-02T18:46:06.879Z,3.33
2018-05-02T18:48:35.255Z,3.27
2018-05-02T18:51:02.828Z,3.20
2018-05-02T18:53:30.326Z,3.60
2018-05-02T18:55:57.826Z,3.40
2018-05-02T18:58:26.117Z,4.37
2018-05-02T19:00:53.643Z,4.13
2018-05-02T19:03:21.168Z,4.10
2018-05-02T19:05:48.693Z,4.73
2018-05-02T19:08:16.963Z,4.57
2018-05-02T19:10:45.235Z,4.10
2018-05-02T19:13:14.151Z,3.97
2018-05-02T19:15:41.643Z,4.27
2018-05-02T19:18:14.738Z,3.83
2018-05-02T19:20:42.251Z,4.67
2018-05-02T19:23:09.771Z,3.20
2018-05-02T19:25:43.035Z,3.70
2018-05-02T19:28:10.535Z,3.30
2018-05-02T19:30:38.057Z,4.00
2018-05-02T19:33:11.178Z,3.27
2018-05-02T19:35:38.679Z,3.57
2018-05-02T19:38:06.271Z,3.57
2018-05-02T19:40:39.527Z,3.00
2018-05-02T19:43:12.720Z,3.47
2018-05-02T19:45:40.275Z,4.28
2018-05-02T19:48:07.795Z,3.83
2018-05-02T19:50:35.307Z,3.97
2018-05-02T19:53:02.831Z,3.60
2018-05-02T19:55:31.119Z,3.95
2018-05-02T19:57:59.454Z,3.70
2018-05-02T20:00:32.727Z,4.50
2018-05-02T20:03:01.145Z,3.92
2018-05-02T20:05:28.647Z,3.55
2018-05-02T20:07:56.199Z,3.37
2018-05-02T20:10:29.439Z,3.55
2018-05-02T20:13:02.764Z,4.05
2018-05-02T20:15:30.310Z,3.87
2018-05-02T20:17:58.595Z,4.05
2018-05-02T20:20:26.987Z,3.80
2018-05-02T20:22:54.531Z,4.00
2018-05-02T20:25:22.114Z,3.67
2018-05-02T20:27:49.727Z,3.62
2018-05-02T20:30:17.252Z,4.45
2018-05-02T20:32:44.755Z,4.65
2018-05-02T20:35:12.283Z,3.72
2018-05-02T20:37:39.796Z,4.50
2018-05-02T20:40:08.068Z,4.70
2018-05-02T20:42:36.359Z,4.72
2018-05-02T20:45:03.872Z,5.03
2018-05-02T20:47:31.379Z,5.35
2018-05-02T20:49:58.904Z,6.30
2018-05-02T20:52:26.407Z,6.12
2018-05-02T20:54:53.945Z,6.70
2018-05-02T20:57:23.080Z,7.75
2018-05-02T20:59:50.591Z,7.40
2018-05-02T21:02:19.783Z,9.20
2018-05-02T21:04:47.299Z,9.45
2018-05-02T21:07:14.802Z,10.18
2018-05-02T21:09:43.811Z,9.50
2018-05-02T21:12:14.235Z,9.05
2018-05-02T21:14:43.132Z,10.10
2018-05-02T21:17:13.655Z,9.50
2018-05-02T21:19:42.140Z,9.60
2018-05-02T21:22:10.784Z,11.02
2018-05-02T21:24:40.336Z,11.00
2018-05-02T21:27:11.537Z,11.80
2018-05-02T21:29:40.163Z,11.30
2018-05-02T21:32:09.015Z,9.55
2018-05-02T21:34:37.734Z,10.50
2018-05-02T21:37:07.916Z,10.18
2018-05-02T21:39:36.883Z,12.40
2018-05-02T21:42:06.859Z,12.93
2018-05-02T21:44:35.447Z,12.70
2018-05-02T21:47:03.717Z,13.88
2018-05-02T21:49:32.007Z,13.38
2018-05-02T21:54:37.469Z,13.48
2018-05-02T21:57:06.247Z,12.70
2018-05-02T21:59:37.285Z,12.93
2018-05-02T22:02:05.687Z,13.85
2018-05-02T22:04:35.641Z,12.57
2018-05-02T22:07:03.687Z,13.15
2018-05-02T22:09:32.320Z,13.88
2018-05-02T22:12:02.523Z,14.15
2018-05-02T22:14:31.232Z,15.30
2018-05-02T22:17:00.904Z,15.02
2018-05-02T22:19:29.627Z,13.23
2018-05-02T22:21:58.986Z,16.05
2018-05-02T22:24:26.574Z,14.40
2018-05-02T22:26:54.103Z,16.05
2018-05-02T22:29:21.631Z,15.95
2018-05-02T22:31:49.755Z,16.42
2018-05-02T22:34:18.123Z,15.70
2018-05-02T22:36:46.700Z,15.20
2018-05-02T22:39:14.907Z,14.32
2018-05-02T22:41:43.749Z,16.20
2018-05-02T22:44:14.343Z,15.20
2018-05-02T22:46:43.568Z,15.80
2018-05-02T22:49:13.336Z,15.10
2018-05-02T22:51:42.663Z,15.13
2018-05-02T22:54:10.894Z,17.02
2018-05-02T22:56:40.641Z,16.42
2018-05-02T22:59:09.743Z,14.93
2018-05-02T23:01:38.641Z,16.25
2018-05-02T23:04:06.909Z,14.75
2018-05-02T23:06:35.964Z,16.20
2018-05-02T23:09:04.196Z,16.37
2018-05-02T23:11:32.447Z,15.73
2018-05-02T23:14:00.956Z,15.70
2018-05-02T23:16:28.479Z,14.10
2018-05-02T23:18:55.985Z,14.30
2018-05-02T23:21:23.636Z,14.77
2018-05-02T23:23:51.147Z,14.00
2018-05-02T23:26:18.662Z,14.25
2018-05-02T23:28:46.173Z,14.18
2018-05-02T23:31:14.379Z,14.43
2018-05-02T23:33:41.889Z,15.85
2018-05-02T23:36:09.394Z,15.30
2018-05-02T23:38:36.933Z,16.15
2018-05-02T23:41:05.248Z,16.80
2018-05-02T23:43:32.847Z,17.00
2018-05-02T23:46:00.374Z,16.23
2018-05-02T23:48:27.873Z,18.35
2018-05-02T23:50:55.384Z,20.65
2018-05-02T23:53:23.005Z,21.10
2018-05-02T23:55:50.535Z,21.50
2018-05-02T23:58:18.039Z,23.23
